メインページ
METAR-TAF:

METAR-TAF

空港 :

女満別空港

女満別, 日本

緯度: 43-53N, 経度: 144-10E, 海抜: 33m

現時点の気象観測

当レポートは22分前の07:00(UTC)に作成
の風 9kt
気温 26°C
湿度 54%
気圧 1009 hPa
視程10km以上
高度3000ftの雲はほとんどない
千切れ雲あり

METAR: RJCM 200700Z 01009KT 9999 FEW030 BKN/// 26/16 Q1009

時間: 16:22 (07:22 UTC)

予報

当レポートは2時間7分前の05:15(UTC)に作成
予報は20日の 06時(UTC)から 21日の 12時(UTC)まで有効
北/北東の風 6kt
視程10km以上
高度2000ftの雲はほとんどない
高度4000ftの雲は散在している
20日の 14時(UTC)から 20日の 16時(UTC)まで徐々に
南/南西の風 6kt

TAF: RJCM 200515Z 2006/2112 02006KT 9999 FEW020 SCT040 BECMG 2014/2016 21006KT

4,000以上の空港の気象観測と天気予報(METAR報とTAF報)

利用可能な観測所は地図上に黄色い丸と赤い丸で示す。

丸の上にカーソルを重ねると観測所名を参照できる。

次にクリックすると気象観測と天気予報を参照できる。

マップの切り替え:黒色「×」印の緑ボタンをクリックして拡大、「-」印の緑ボタンをクリックして縮小、緑色の三角印をクリックして隣りの地図に切り替え


METAR-TAF: